createdAt,value
2022-09-01T00:01:53.566Z,18.92
2022-09-01T00:04:23.259Z,18.93
2022-09-01T00:06:50.123Z,18.92
2022-09-01T00:09:19.822Z,19.04
2022-09-01T00:11:50.483Z,18.97
2022-09-01T00:14:30.068Z,19.03
2022-09-01T00:17:02.782Z,19.03
2022-09-01T00:19:29.840Z,19.04
2022-09-01T00:21:56.945Z,19.11
2022-09-01T00:24:26.340Z,19.10
2022-09-01T00:26:54.395Z,19.06
2022-09-01T00:29:21.115Z,19.03
2022-09-01T00:31:48.063Z,19.14
2022-09-01T00:34:15.387Z,19.04
2022-09-01T00:36:42.109Z,19.08
2022-09-01T00:39:09.017Z,19.03
2022-09-01T00:41:40.066Z,19.00
2022-09-01T00:44:12.081Z,18.86
2022-09-01T00:46:47.683Z,18.99
2022-09-01T00:49:24.428Z,19.01
2022-09-01T00:51:57.518Z,18.85
2022-09-01T00:54:27.131Z,18.93
2022-09-01T00:56:57.976Z,18.95
2022-09-01T00:59:26.168Z,19.00
2022-09-01T01:01:53.654Z,19.05
2022-09-01T01:04:20.840Z,19.08
2022-09-01T01:06:58.763Z,18.84
2022-09-01T01:09:27.164Z,18.95
2022-09-01T01:11:54.223Z,18.98
2022-09-01T01:14:20.998Z,19.03
2022-09-01T01:16:52.408Z,19.05
2022-09-01T01:19:43.844Z,19.01
2022-09-01T01:22:34.321Z,18.93
2022-09-01T01:25:02.317Z,18.85
2022-09-01T01:27:38.064Z,18.92
2022-09-01T01:30:12.830Z,18.92
2022-09-01T01:32:43.337Z,18.92
2022-09-01T01:35:15.027Z,18.91
2022-09-01T01:37:49.253Z,18.88
2022-09-01T01:40:22.993Z,18.71
2022-09-01T01:42:52.078Z,18.78
2022-09-01T01:45:21.687Z,18.80
2022-09-01T01:47:56.799Z,18.65
2022-09-01T01:50:36.034Z,18.68
2022-09-01T01:53:10.967Z,18.72
2022-09-01T01:55:40.713Z,18.74
2022-09-01T01:58:08.343Z,18.75
2022-09-01T02:00:35.224Z,18.72
2022-09-01T02:03:03.371Z,18.69
2022-09-01T02:05:34.923Z,18.69
2022-09-01T02:08:08.159Z,18.64
2022-09-01T02:10:44.354Z,18.67
2022-09-01T02:13:16.559Z,18.65
2022-09-01T02:15:47.154Z,18.58
2022-09-01T02:18:28.075Z,18.58
2022-09-01T02:20:59.128Z,18.54
2022-09-01T02:23:25.950Z,18.51
2022-09-01T02:26:15.728Z,18.48
2022-09-01T02:28:45.512Z,18.28
2022-09-01T02:31:12.679Z,18.34
2022-09-01T02:33:40.999Z,18.41
2022-09-01T02:36:14.067Z,18.43
2022-09-01T02:38:46.852Z,18.47
2022-09-01T02:41:23.259Z,18.42
2022-09-01T02:43:56.033Z,18.43
2022-09-01T02:46:24.669Z,18.41
2022-09-01T02:48:52.807Z,18.40
2022-09-01T02:51:22.754Z,18.34
2022-09-01T02:53:52.930Z,18.33
2022-09-01T02:56:25.738Z,18.29
2022-09-01T02:58:54.274Z,18.24
2022-09-01T03:01:25.809Z,18.23
2022-09-01T03:03:55.603Z,18.18
2022-09-01T03:06:24.565Z,18.13
2022-09-01T03:08:59.807Z,18.08
2022-09-01T03:11:28.090Z,18.02
2022-09-01T03:13:56.862Z,17.99
2022-09-01T03:16:23.710Z,17.95
2022-09-01T03:18:51.941Z,17.92
2022-09-01T03:21:20.359Z,17.89
2022-09-01T03:23:50.011Z,17.83
2022-09-01T03:26:19.510Z,17.83
2022-09-01T03:28:46.580Z,17.77
2022-09-01T03:31:14.501Z,17.74
2022-09-01T03:33:42.392Z,17.66
2022-09-01T03:36:22.274Z,17.63
2022-09-01T03:38:49.979Z,17.55
2022-09-01T03:41:21.758Z,17.48
2022-09-01T03:43:49.169Z,17.42
2022-09-01T03:46:21.884Z,17.34
2022-09-01T03:48:55.959Z,17.29
2022-09-01T03:51:23.594Z,17.20
2022-09-01T03:53:54.638Z,17.17
2022-09-01T03:56:24.262Z,17.04
2022-09-01T03:58:52.202Z,17.00
2022-09-01T04:01:19.569Z,16.95
2022-09-01T04:03:51.048Z,16.81
2022-09-01T04:06:24.285Z,16.80
2022-09-01T04:08:56.989Z,16.75
2022-09-01T04:11:25.430Z,16.68
2022-09-01T04:13:53.159Z,16.69
2022-09-01T04:16:44.780Z,16.60
2022-09-01T04:19:25.782Z,16.56
2022-09-01T04:22:01.304Z,16.46
2022-09-01T04:24:36.001Z,16.40
2022-09-01T04:27:03.644Z,16.36
2022-09-01T04:29:32.056Z,16.36
2022-09-01T04:32:03.895Z,16.30
2022-09-01T04:34:37.631Z,16.24
2022-09-01T04:37:13.366Z,16.14
2022-09-01T04:39:53.689Z,16.12
2022-09-01T04:42:24.326Z,16.06
2022-09-01T04:44:53.729Z,16.04
2022-09-01T04:47:35.566Z,16.03
2022-09-01T04:50:14.517Z,15.98
2022-09-01T04:52:46.073Z,15.99
2022-09-01T04:55:29.931Z,15.98
2022-09-01T04:57:59.244Z,15.94
2022-09-01T05:00:28.037Z,15.96
2022-09-01T05:03:03.170Z,15.90
2022-09-01T05:05:45.402Z,15.90
2022-09-01T05:08:23.451Z,15.90
2022-09-01T05:10:55.919Z,15.87
2022-09-01T05:13:39.724Z,15.87
2022-09-01T05:16:13.362Z,15.86
2022-09-01T05:18:49.095Z,15.83
2022-09-01T05:21:20.127Z,15.84
2022-09-01T05:23:47.945Z,15.83
2022-09-01T05:26:19.277Z,15.88
2022-09-01T05:28:53.903Z,15.94
2022-09-01T05:31:21.534Z,15.97
2022-09-01T05:33:51.090Z,15.97
2022-09-01T05:36:20.370Z,16.01
2022-09-01T05:38:48.296Z,16.05
2022-09-01T05:41:17.544Z,16.06
2022-09-01T05:43:46.699Z,16.11
2022-09-01T05:46:17.162Z,16.06
2022-09-01T05:48:45.523Z,16.17
2022-09-01T05:51:42.841Z,16.21
2022-09-01T05:54:09.477Z,16.31
2022-09-01T05:56:43.706Z,16.33
2022-09-01T05:59:23.315Z,16.38
2022-09-01T06:01:53.655Z,16.46
2022-09-01T06:04:25.841Z,16.52
2022-09-01T06:07:05.326Z,16.58
2022-09-01T06:09:43.082Z,16.62
2022-09-01T06:12:23.263Z,16.68
2022-09-01T06:14:51.839Z,16.62
2022-09-01T06:17:25.183Z,16.74
2022-09-01T06:19:55.829Z,16.93
2022-09-01T06:22:24.141Z,17.11
2022-09-01T06:24:56.893Z,17.32
2022-09-01T06:27:28.344Z,17.61
2022-09-01T06:29:56.380Z,17.68
2022-09-01T06:32:26.075Z,18.02
2022-09-01T06:34:54.810Z,18.29
2022-09-01T06:37:23.133Z,18.45
2022-09-01T06:39:53.218Z,18.48
2022-09-01T06:42:20.477Z,18.51
2022-09-01T06:44:53.092Z,18.46
2022-09-01T06:47:20.186Z,18.24
2022-09-01T06:49:46.935Z,18.47
2022-09-01T06:52:23.741Z,18.48
2022-09-01T06:54:53.423Z,18.41
2022-09-01T07:00:21.173Z,18.46
2022-09-01T07:02:56.508Z,18.47
2022-09-01T07:09:20.229Z,18.33
2022-09-01T07:12:24.871Z,18.41
2022-09-01T07:17:50.311Z,18.80
2022-09-01T07:20:29.389Z,18.84
2022-09-01T07:23:06.442Z,19.16
2022-09-01T07:28:39.992Z,19.92
2022-09-01T07:39:49.168Z,21.23
2022-09-01T07:45:48.082Z,21.91
2022-09-01T07:48:36.742Z,22.22
2022-09-01T07:51:37.187Z,22.80
2022-09-01T07:54:06.015Z,22.95
2022-09-01T07:56:39.455Z,23.33
2022-09-01T07:59:08.359Z,23.34
2022-09-01T08:01:38.114Z,23.61
2022-09-01T08:04:05.025Z,24.02
2022-09-01T08:06:39.318Z,24.19
2022-09-01T08:09:11.493Z,24.42
2022-09-01T08:14:25.955Z,24.25
2022-09-01T08:16:53.223Z,24.39
2022-09-01T08:19:20.557Z,24.81
2022-09-01T08:22:10.253Z,24.90
2022-09-01T08:24:51.603Z,25.15
2022-09-01T08:27:18.856Z,25.36
2022-09-01T08:29:45.731Z,25.59
2022-09-01T08:32:13.382Z,25.82
2022-09-01T08:34:40.352Z,25.99
2022-09-01T08:37:07.600Z,26.25
2022-09-01T08:39:35.479Z,26.19
2022-09-01T08:42:20.096Z,26.29
2022-09-01T08:44:47.423Z,26.61
2022-09-01T08:47:17.236Z,26.73
2022-09-01T08:49:47.302Z,26.84
2022-09-01T08:52:31.327Z,27.06
2022-09-01T08:55:27.788Z,26.95
2022-09-01T08:57:59.746Z,26.76
2022-09-01T09:00:33.353Z,26.72
2022-09-01T09:03:40.565Z,26.78
2022-09-01T09:06:26.144Z,27.13
2022-09-01T09:08:58.095Z,27.12
2022-09-01T09:11:50.459Z,27.17
2022-09-01T09:14:20.458Z,27.66
2022-09-01T09:16:51.565Z,27.79
2022-09-01T09:19:30.993Z,27.96
2022-09-01T09:22:00.745Z,28.15
2022-09-01T09:25:03.896Z,28.32
2022-09-01T09:27:36.823Z,28.25
2022-09-01T09:30:31.569Z,28.31
2022-09-01T09:35:55.032Z,27.69
2022-09-01T09:38:29.373Z,28.01
2022-09-01T09:41:17.017Z,27.78
2022-09-01T09:44:04.656Z,28.29
2022-09-01T09:46:36.576Z,28.07
2022-09-01T09:49:35.132Z,28.19
2022-09-01T09:52:10.310Z,28.56
2022-09-01T09:54:57.599Z,27.61
2022-09-01T09:57:24.727Z,28.31
2022-09-01T10:00:01.446Z,28.24
2022-09-01T10:02:33.339Z,28.65
2022-09-01T10:05:41.724Z,28.68
2022-09-01T10:08:34.971Z,28.93
2022-09-01T10:11:02.283Z,29.33
2022-09-01T10:13:33.115Z,29.39
2022-09-01T10:16:03.767Z,29.51
2022-09-01T10:18:45.248Z,29.82
2022-09-01T10:21:17.699Z,29.94
2022-09-01T10:23:44.822Z,29.89
2022-09-01T10:26:18.875Z,29.57
2022-09-01T10:28:56.888Z,28.88
2022-09-01T10:31:29.526Z,28.53
2022-09-01T10:34:02.877Z,28.47
2022-09-01T10:36:33.796Z,28.59
2022-09-01T10:39:06.208Z,28.91
2022-09-01T10:42:07.753Z,29.20
2022-09-01T10:44:36.569Z,28.50
2022-09-01T10:47:30.279Z,27.77
2022-09-01T10:50:00.144Z,27.75
2022-09-01T10:52:43.907Z,27.48
2022-09-01T10:55:24.746Z,27.26
2022-09-01T10:57:56.140Z,27.31
2022-09-01T11:00:38.993Z,27.16
2022-09-01T11:06:13.024Z,27.99
2022-09-01T11:08:59.259Z,29.12
2022-09-01T11:11:41.794Z,29.30
2022-09-01T11:14:23.345Z,29.07
2022-09-01T11:17:13.576Z,28.85
2022-09-01T11:19:55.715Z,29.03
2022-09-01T11:22:32.770Z,29.04
2022-09-01T11:25:41.292Z,28.54
2022-09-01T11:28:10.821Z,27.75
2022-09-01T11:30:53.127Z,27.44
2022-09-01T11:33:32.230Z,26.99
2022-09-01T11:36:12.480Z,26.63
2022-09-01T11:39:14.651Z,26.39
2022-09-01T11:41:55.740Z,26.22
2022-09-01T11:44:42.572Z,26.15
2022-09-01T11:47:40.766Z,26.29
2022-09-01T11:50:16.593Z,26.19
2022-09-01T11:52:43.666Z,26.31
2022-09-01T11:55:10.719Z,26.11
2022-09-01T11:57:40.405Z,26.09
2022-09-01T12:00:13.462Z,25.88
2022-09-01T12:02:46.373Z,25.89
2022-09-01T12:05:35.598Z,25.69
2022-09-01T12:08:04.666Z,25.32
2022-09-01T12:10:38.653Z,25.38
2022-09-01T12:13:12.344Z,25.25
2022-09-01T12:16:13.957Z,24.98
2022-09-01T12:18:31.896Z,24.86
2022-09-01T12:21:02.287Z,24.89
2022-09-01T12:23:34.367Z,24.97
2022-09-01T12:26:03.679Z,25.25
2022-09-01T12:28:31.882Z,25.02
2022-09-01T12:31:09.312Z,24.64
2022-09-01T12:33:36.717Z,24.63
2022-09-01T12:36:26.283Z,24.76
2022-09-01T12:38:55.143Z,24.78
2022-09-01T12:41:24.919Z,24.74
2022-09-01T12:43:54.658Z,24.59
2022-09-01T12:46:44.884Z,24.40
2022-09-01T12:49:20.119Z,24.34
2022-09-01T12:51:48.713Z,24.23
2022-09-01T12:54:16.232Z,24.22
2022-09-01T12:56:48.653Z,24.22
2022-09-01T12:59:36.127Z,24.04
2022-09-01T13:02:27.464Z,23.80
2022-09-01T13:04:54.330Z,24.01
2022-09-01T13:07:21.239Z,24.18
2022-09-01T13:09:48.063Z,24.39
2022-09-01T13:12:21.544Z,24.52
2022-09-01T13:14:48.309Z,24.61
2022-09-01T13:17:15.198Z,24.88
2022-09-01T13:19:42.451Z,24.75
2022-09-01T13:22:09.339Z,24.83
2022-09-01T13:24:36.099Z,25.42
2022-09-01T13:29:50.516Z,26.37
2022-09-01T13:32:20.862Z,26.85
2022-09-01T13:34:52.717Z,26.79
2022-09-01T13:37:20.992Z,25.83
2022-09-01T13:39:48.665Z,25.74
2022-09-01T13:42:16.137Z,25.70
2022-09-01T13:44:44.660Z,25.83
2022-09-01T13:50:09.906Z,25.88
2022-09-01T13:52:38.756Z,25.75
2022-09-01T13:55:06.784Z,25.87
2022-09-01T13:57:36.626Z,25.80
2022-09-01T14:00:06.684Z,25.43
2022-09-01T14:02:39.250Z,25.59
2022-09-01T14:05:07.197Z,25.14
2022-09-01T14:07:34.262Z,25.44
2022-09-01T14:10:01.283Z,25.27
2022-09-01T14:12:30.406Z,25.28
2022-09-01T14:15:16.502Z,25.20
2022-09-01T14:17:46.024Z,25.30
2022-09-01T14:20:16.284Z,25.11
2022-09-01T14:22:43.279Z,24.79
2022-09-01T14:25:10.983Z,24.72
2022-09-01T14:27:38.473Z,24.87
2022-09-01T14:30:07.724Z,24.86
2022-09-01T14:32:35.157Z,24.84
2022-09-01T14:35:02.365Z,24.92
2022-09-01T14:37:29.463Z,25.05
2022-09-01T14:39:57.446Z,25.19
2022-09-01T14:42:29.281Z,25.15
2022-09-01T14:44:56.539Z,25.11
2022-09-01T14:47:25.809Z,25.05
2022-09-01T14:49:53.623Z,24.25
2022-09-01T14:52:22.235Z,24.27
2022-09-01T14:54:49.719Z,24.53
2022-09-01T14:57:37.612Z,24.60
2022-09-01T15:00:15.151Z,24.16
2022-09-01T15:02:43.025Z,24.30
2022-09-01T15:05:11.147Z,24.14
2022-09-01T15:07:38.650Z,24.12
2022-09-01T15:10:08.619Z,23.91
2022-09-01T15:12:35.612Z,24.04
2022-09-01T15:15:02.489Z,24.01
2022-09-01T15:17:29.636Z,23.91
2022-09-01T15:19:56.432Z,23.97
2022-09-01T15:22:23.152Z,23.66
2022-09-01T15:24:49.849Z,23.39
2022-09-01T15:27:16.663Z,23.54
2022-09-01T15:29:48.115Z,23.65
2022-09-01T15:32:27.447Z,23.51
2022-09-01T15:34:55.326Z,23.60
2022-09-01T15:37:22.067Z,23.33
2022-09-01T15:39:48.850Z,23.52
2022-09-01T15:42:17.545Z,23.54
2022-09-01T15:44:44.489Z,23.64
2022-09-01T15:47:11.319Z,23.58
2022-09-01T15:49:38.079Z,23.67
2022-09-01T15:52:04.841Z,23.53
2022-09-01T15:54:31.729Z,23.50
2022-09-01T15:56:58.597Z,23.52
2022-09-01T15:59:25.378Z,23.55
2022-09-01T16:01:54.565Z,23.52
2022-09-01T16:04:27.552Z,23.51
2022-09-01T16:06:56.706Z,23.55
2022-09-01T16:09:23.641Z,23.47
2022-09-01T16:11:50.646Z,23.37
2022-09-01T16:14:17.466Z,23.34
2022-09-01T16:16:48.512Z,23.33
2022-09-01T16:19:22.718Z,23.28
2022-09-01T16:21:56.921Z,23.23
2022-09-01T16:24:24.338Z,23.17
2022-09-01T16:26:52.467Z,23.10
2022-09-01T16:29:30.768Z,23.07
2022-09-01T16:31:57.628Z,22.95
2022-09-01T16:34:27.805Z,22.94
2022-09-01T16:37:00.782Z,22.66
2022-09-01T16:39:39.177Z,22.69
2022-09-01T16:42:22.924Z,22.66
2022-09-01T16:45:01.942Z,22.60
2022-09-01T16:47:44.369Z,22.54
2022-09-01T16:50:20.967Z,22.46
2022-09-01T16:53:14.193Z,22.40
2022-09-01T16:56:10.998Z,22.23
2022-09-01T16:58:44.817Z,22.20
2022-09-01T17:01:36.834Z,22.14
2022-09-01T17:04:22.427Z,22.09
2022-09-01T17:06:57.582Z,21.96
2022-09-01T17:09:54.193Z,21.94
2022-09-01T17:12:47.051Z,21.92
2022-09-01T17:15:22.623Z,21.85
2022-09-01T17:18:10.217Z,21.80
2022-09-01T17:20:57.999Z,21.74
2022-09-01T17:23:28.437Z,21.69
2022-09-01T17:25:59.069Z,21.61
2022-09-01T17:28:38.798Z,21.55
2022-09-01T17:31:17.856Z,21.51
2022-09-01T17:33:47.521Z,21.44
2022-09-01T17:36:52.813Z,21.38
2022-09-01T17:39:57.067Z,21.28
2022-09-01T17:42:27.611Z,21.17
2022-09-01T17:44:59.757Z,21.08
2022-09-01T17:47:44.778Z,20.99
2022-09-01T17:50:50.248Z,20.88
2022-09-01T17:53:35.343Z,20.80
2022-09-01T17:56:09.228Z,20.70
2022-09-01T17:58:42.460Z,20.61
2022-09-01T18:01:19.349Z,20.51
2022-09-01T18:04:24.232Z,20.48
2022-09-01T18:06:56.735Z,20.37
2022-09-01T18:09:26.065Z,20.30
2022-09-01T18:12:05.325Z,20.22
2022-09-01T18:14:40.115Z,20.16
2022-09-01T18:17:19.363Z,20.08
2022-09-01T18:19:48.737Z,19.98
2022-09-01T18:22:19.292Z,19.89
2022-09-01T18:24:54.880Z,19.85
2022-09-01T18:27:24.663Z,19.75
2022-09-01T18:29:53.023Z,19.69
2022-09-01T18:32:38.592Z,19.66
2022-09-01T18:35:26.619Z,19.59
2022-09-01T18:37:59.330Z,19.52
2022-09-01T18:40:34.069Z,19.44
2022-09-01T18:43:31.059Z,19.39
2022-09-01T18:46:20.956Z,19.29
2022-09-01T18:48:56.949Z,19.22
2022-09-01T18:51:30.346Z,19.17
2022-09-01T18:54:02.785Z,19.10
2022-09-01T18:57:01.916Z,19.02
2022-09-01T18:59:48.678Z,18.95
2022-09-01T19:02:51.169Z,18.86
2022-09-01T19:05:46.174Z,18.79
2022-09-01T19:08:42.734Z,18.75
2022-09-01T19:11:30.751Z,18.66
2022-09-01T19:14:16.665Z,18.57
2022-09-01T19:17:08.890Z,18.53
2022-09-01T19:19:45.380Z,18.45
2022-09-01T19:22:21.680Z,18.38
2022-09-01T19:25:15.956Z,18.33
2022-09-01T19:27:42.750Z,18.27
2022-09-01T19:30:12.641Z,18.21
2022-09-01T19:32:39.436Z,18.16
2022-09-01T19:35:15.850Z,18.12
2022-09-01T19:37:44.596Z,18.07
2022-09-01T19:40:11.758Z,18.02
2022-09-01T19:43:17.832Z,17.97
2022-09-01T19:45:59.093Z,17.89
2022-09-01T19:48:38.910Z,17.84
2022-09-01T19:51:14.035Z,17.79
2022-09-01T19:53:59.026Z,17.77
2022-09-01T19:56:28.666Z,17.74
2022-09-01T19:59:14.230Z,17.68
2022-09-01T20:01:44.047Z,17.62
2022-09-01T20:04:21.441Z,17.59
2022-09-01T20:06:51.344Z,17.54
2022-09-01T20:09:29.270Z,17.52
2022-09-01T20:12:09.124Z,17.47
2022-09-01T20:15:01.054Z,17.45
2022-09-01T20:18:03.765Z,17.39
2022-09-01T20:20:38.150Z,17.32
2022-09-01T20:23:29.389Z,17.28
2022-09-01T20:26:04.279Z,17.24
2022-09-01T20:28:55.399Z,17.22
2022-09-01T20:31:28.817Z,17.22
2022-09-01T20:34:04.685Z,17.17
2022-09-01T20:36:38.849Z,17.19
2022-09-01T20:39:30.460Z,17.14
2022-09-01T20:42:12.524Z,17.15
2022-09-01T20:44:52.323Z,17.08
2022-09-01T20:47:19.446Z,17.03
2022-09-01T20:49:46.257Z,16.98
2022-09-01T20:52:26.154Z,16.95
2022-09-01T20:55:08.071Z,16.92
2022-09-01T20:57:48.483Z,16.92
2022-09-01T21:00:23.085Z,16.89
2022-09-01T21:03:05.475Z,16.89
2022-09-01T21:05:41.209Z,16.86
2022-09-01T21:08:14.701Z,16.82
2022-09-01T21:10:48.565Z,16.78
2022-09-01T21:13:26.715Z,16.75
2022-09-01T21:16:04.950Z,16.72
2022-09-01T21:18:46.892Z,16.70
2022-09-01T21:21:45.612Z,16.66
2022-09-01T21:24:12.381Z,16.63
2022-09-01T21:26:40.382Z,16.61
2022-09-01T21:29:26.707Z,16.58
2022-09-01T21:31:53.488Z,16.54
2022-09-01T21:34:20.236Z,16.48
2022-09-01T21:36:46.956Z,16.48
2022-09-01T21:39:14.779Z,16.46
2022-09-01T21:41:41.583Z,16.44
2022-09-01T21:44:09.189Z,16.41
2022-09-01T21:46:35.973Z,16.37
2022-09-01T21:49:02.680Z,16.36
2022-09-01T21:51:29.466Z,16.37
2022-09-01T21:53:56.203Z,16.35
2022-09-01T21:56:25.877Z,16.37
2022-09-01T21:58:53.133Z,16.38
2022-09-01T22:01:19.934Z,16.31
2022-09-01T22:03:46.680Z,16.33
2022-09-01T22:06:13.560Z,16.29
2022-09-01T22:08:40.305Z,16.26
2022-09-01T22:11:10.005Z,16.25
2022-09-01T22:13:36.940Z,16.21
2022-09-01T22:16:03.897Z,16.23
2022-09-01T22:18:30.695Z,16.23
2022-09-01T22:21:02.601Z,16.24
2022-09-01T22:23:29.435Z,16.25
2022-09-01T22:25:56.149Z,16.21
2022-09-01T22:28:22.861Z,16.13
2022-09-01T22:30:53.700Z,16.11
2022-09-01T22:33:22.905Z,16.12
2022-09-01T22:35:54.257Z,16.06
2022-09-01T22:38:22.012Z,16.08
2022-09-01T22:40:55.611Z,16.04
2022-09-01T22:43:24.230Z,15.97
2022-09-01T22:45:51.744Z,15.94
2022-09-01T22:48:20.135Z,15.91
2022-09-01T22:50:47.795Z,15.90
2022-09-01T22:53:15.653Z,15.87
2022-09-01T22:55:45.350Z,15.84
2022-09-01T22:58:12.518Z,15.80
2022-09-01T23:00:44.242Z,15.76
2022-09-01T23:03:11.049Z,15.75
2022-09-01T23:05:37.769Z,15.70
2022-09-01T23:08:04.500Z,15.70
2022-09-01T23:10:31.603Z,15.66
2022-09-01T23:12:58.463Z,15.61
2022-09-01T23:15:25.286Z,15.60
2022-09-01T23:17:52.027Z,15.59
2022-09-01T23:20:19.062Z,15.57
2022-09-01T23:22:46.220Z,15.58
2022-09-01T23:25:14.998Z,15.60
2022-09-01T23:27:42.006Z,15.56
2022-09-01T23:30:11.057Z,15.55
2022-09-01T23:32:38.158Z,15.51
2022-09-01T23:35:05.614Z,15.50
2022-09-01T23:37:32.292Z,15.47
2022-09-01T23:39:58.988Z,15.44
2022-09-01T23:42:25.723Z,15.44
2022-09-01T23:44:52.414Z,15.42
2022-09-01T23:47:19.747Z,15.40
2022-09-01T23:49:46.443Z,15.47
2022-09-01T23:52:13.178Z,15.41
2022-09-01T23:54:40.003Z,15.39
2022-09-01T23:57:06.784Z,15.41
2022-09-01T23:59:33.516Z,15.39
